Weather at Sølager Airfiield

Public forecast

Using degrees Celsius for public forecast. Weather courtesy of forecast.io.

Closest aviation weather report (METAR) to Sølager Airfiield

Closest report is Copenhagen Roskilde Airport, 23.0 nm (42.5 km) SSE. Retrieved 2021/10/16 02:20 UTC (38 minutes ago):

EKRK 160220Z AUTO 28010KT 9999 NCD 06/04 Q1015

Closest aviation forecast (TAF) to Sølager Airfiield

Forecast is more than 12 hours old.

Closest forecast is Copenhagen Roskilde Airport, 23.0 nm (42.5 km) SSE. Retrieved 2020/10/13 06:33 UTC (1 year ago):

TAF EKRK 130526Z 1306/1415 09004KT 0200 FG VV001 TEMPO 1306/1307 6000 NSW NSC BECMG 1307/1309 9999 NSW FEW020